Time;durP1;ratioP1;P1;durP2;ratioP2;P2;SDS_P1;SDS_P2;PMS_P1;PMS_P2;Temp;Humidity;BMP_temperature;BMP_pressure;BME280_temperature;BME280_humidity;BME280_pressure;Samples;Min_cycle;Max_cycle;Signal;HPM_P1;HPM_P2
2022/07/02 00:00:47;;;;;;;2.38;0.70;;;15.90;69.30;;;;;;5032120;28;20048;-73
2022/07/02 00:03:15;;;;;;;3.47;0.85;;;15.80;69.30;;;;;;5028541;28;20117;-71
2022/07/02 00:05:47;;;;;;;2.63;1.05;;;15.80;69.40;;;;;;5025087;28;20123;-72
2022/07/02 00:08:13;;;;;;;1.27;0.90;;;15.80;69.60;;;;;;5030967;28;20048;-71
2022/07/02 00:10:38;;;;;;;2.05;1.10;;;15.80;69.50;;;;;;5029772;28;20044;-71
2022/07/02 00:13:05;;;;;;;5.70;1.48;;;15.80;69.50;;;;;;5039331;28;20033;-72
2022/07/02 00:15:31;;;;;;;1.35;1.25;;;15.70;69.60;;;;;;4990761;28;20147;-71
2022/07/02 00:17:56;;;;;;;0.88;0.88;;;15.70;69.60;;;;;;5005691;28;20132;-72
2022/07/02 00:20:22;;;;;;;2.47;1.15;;;15.60;69.80;;;;;;5025195;28;20044;-70
2022/07/02 00:22:48;;;;;;;1.10;0.75;;;15.60;69.70;;;;;;5045807;28;20055;-71
2022/07/02 00:25:13;;;;;;;2.63;0.80;;;15.60;70.00;;;;;;4996327;28;20650;-70
2022/07/02 00:27:40;;;;;;;1.00;1.00;;;15.50;69.90;;;;;;5029576;28;20048;-72
2022/07/02 00:30:06;;;;;;;1.02;0.88;;;15.50;69.90;;;;;;5047321;28;20037;-70
2022/07/02 00:32:33;;;;;;;1.55;1.23;;;15.50;70.10;;;;;;5003040;28;21007;-71
2022/07/02 00:34:59;;;;;;;1.10;0.90;;;15.50;70.10;;;;;;5001687;28;20040;-71
2022/07/02 00:37:25;;;;;;;2.97;1.45;;;15.40;70.10;;;;;;5030351;28;20041;-70
2022/07/02 00:39:51;;;;;;;0.90;0.90;;;15.40;70.30;;;;;;5015692;28;20037;-71
2022/07/02 00:42:16;;;;;;;1.10;0.90;;;15.40;70.30;;;;;;5008023;28;20654;-71
2022/07/02 00:44:42;;;;;;;2.72;0.90;;;15.30;70.30;;;;;;4993568;28;20041;-71
2022/07/02 00:47:09;;;;;;;3.45;1.10;;;15.20;70.30;;;;;;5013226;28;20025;-73
2022/07/02 00:49:35;;;;;;;1.55;1.02;;;15.20;70.50;;;;;;5014129;28;20049;-71
2022/07/02 00:52:01;;;;;;;2.50;0.90;;;15.20;70.60;;;;;;4997111;28;20125;-71
2022/07/02 00:54:27;;;;;;;1.30;1.13;;;15.10;70.60;;;;;;5019734;28;20129;-71
2022/07/02 00:56:53;;;;;;;1.42;0.90;;;15.10;70.80;;;;;;5020072;28;20668;-70
2022/07/02 00:59:22;;;;;;;2.50;1.10;;;15.00;70.80;;;;;;4997019;28;20066;-71
2022/07/02 01:01:48;;;;;;;4.13;1.00;;;15.00;70.90;;;;;;4969987;28;20030;-72
2022/07/02 01:04:14;;;;;;;1.80;1.00;;;14.90;71.10;;;;;;5003877;28;20048;-72
2022/07/02 01:06:41;;;;;;;1.02;0.82;;;14.80;71.20;;;;;;5021255;28;20124;-70
2022/07/02 01:11:50;;;;;;;3.53;0.95;;;14.80;71.70;;;;;;5005585;28;20480;-71
2022/07/02 01:14:18;;;;;;;2.67;1.08;;;14.80;71.70;;;;;;4995315;28;20037;-71
2022/07/02 01:16:43;;;;;;;2.95;1.70;;;14.80;71.60;;;;;;5025022;28;20750;-70
2022/07/02 01:19:10;;;;;;;2.88;1.30;;;14.80;71.60;;;;;;4997212;28;20041;-71
2022/07/02 01:21:37;;;;;;;1.13;1.00;;;14.80;71.60;;;;;;4989010;28;20036;-70
2022/07/02 01:24:02;;;;;;;1.38;1.00;;;14.70;71.50;;;;;;5014090;28;20063;-70
2022/07/02 01:26:28;;;;;;;3.63;1.30;;;14.80;71.60;;;;;;5032791;28;20057;-71
2022/07/02 01:28:54;;;;;;;0.98;0.88;;;14.80;71.60;;;;;;5013178;28;20071;-70
2022/07/02 01:31:19;;;;;;;1.88;1.10;;;14.70;71.70;;;;;;5010042;28;20028;-70
2022/07/02 01:33:45;;;;;;;1.67;1.00;;;14.70;71.70;;;;;;5002069;28;20513;-70
2022/07/02 01:36:10;;;;;;;1.10;1.00;;;14.70;71.80;;;;;;4994619;28;20033;-71
2022/07/02 01:38:36;;;;;;;2.13;1.35;;;14.60;71.80;;;;;;5003717;28;20814;-71
2022/07/02 01:43:45;;;;;;;1.42;1.00;;;14.60;71.80;;;;;;5026571;28;20049;-71
2022/07/02 01:46:11;;;;;;;3.08;1.13;;;14.60;71.90;;;;;;5033058;28;20036;-70
2022/07/02 01:48:36;;;;;;;1.50;1.00;;;14.50;72.00;;;;;;5031922;28;20036;-71
2022/07/02 01:51:02;;;;;;;3.85;1.15;;;14.50;71.90;;;;;;5037307;28;20047;-71
2022/07/02 01:53:28;;;;;;;2.03;1.00;;;14.50;72.20;;;;;;5039068;28;20036;-71
2022/07/02 01:55:53;;;;;;;1.33;1.23;;;14.40;72.20;;;;;;5044371;28;20037;-71
2022/07/02 01:58:19;;;;;;;1.55;1.20;;;14.40;72.30;;;;;;5020645;28;20025;-73
2022/07/02 02:00:44;;;;;;;3.28;1.35;;;14.40;72.30;;;;;;5013628;28;20128;-72
2022/07/02 02:03:10;;;;;;;1.13;1.08;;;14.30;72.40;;;;;;5020372;28;20041;-70
2022/07/02 02:05:35;;;;;;;2.50;1.08;;;14.30;72.50;;;;;;5032454;28;20044;-71
2022/07/02 02:08:01;;;;;;;1.98;1.10;;;14.30;72.50;;;;;;5041736;28;20033;-70
2022/07/02 02:10:26;;;;;;;1.60;1.10;;;14.20;72.50;;;;;;5047036;28;20032;-71
2022/07/02 02:12:52;;;;;;;1.35;1.00;;;14.20;72.60;;;;;;5029717;28;20044;-72
2022/07/02 02:15:17;;;;;;;1.20;1.10;;;14.20;72.70;;;;;;5040874;28;20052;-72
2022/07/02 02:17:43;;;;;;;1.05;0.88;;;14.20;72.60;;;;;;5036710;28;20033;-70
2022/07/02 02:20:09;;;;;;;1.08;1.00;;;14.20;72.90;;;;;;5024439;28;20123;-72
2022/07/02 02:22:34;;;;;;;1.10;1.00;;;14.20;72.90;;;;;;5027625;28;20032;-71
2022/07/02 02:25:00;;;;;;;1.33;1.23;;;14.20;72.80;;;;;;5033634;28;20102;-71
2022/07/02 02:27:25;;;;;;;2.70;1.15;;;14.20;72.80;;;;;;5035041;28;20116;-71
2022/07/02 02:29:51;;;;;;;2.15;1.10;;;14.10;72.80;;;;;;5028164;28;20046;-72
2022/07/02 02:32:16;;;;;;;2.83;1.00;;;14.10;72.80;;;;;;5041704;28;20076;-70
2022/07/02 02:34:42;;;;;;;2.40;0.93;;;14.10;72.80;;;;;;5039018;28;20040;-72
2022/07/02 02:37:08;;;;;;;1.05;0.95;;;14.10;72.80;;;;;;5034045;28;20043;-72
2022/07/02 02:39:34;;;;;;;1.10;1.00;;;14.10;72.80;;;;;;5044715;28;20041;-75
2022/07/02 02:41:59;;;;;;;1.23;1.00;;;14.10;73.00;;;;;;5013725;28;20028;-72
2022/07/02 02:44:25;;;;;;;3.30;1.17;;;14.00;72.90;;;;;;5003976;28;20640;-71
2022/07/02 02:46:50;;;;;;;2.25;1.08;;;14.00;73.00;;;;;;5030489;28;20090;-72
2022/07/02 02:49:16;;;;;;;3.80;1.65;;;14.00;73.10;;;;;;5028260;28;20029;-71
2022/07/02 02:51:41;;;;;;;1.60;1.10;;;13.90;73.00;;;;;;5014352;28;20033;-70
2022/07/02 02:54:07;;;;;;;1.35;1.10;;;13.90;73.10;;;;;;5026326;28;20033;-71
2022/07/02 02:56:33;;;;;;;1.52;1.42;;;13.90;73.20;;;;;;5041736;28;20721;-71
2022/07/02 02:58:58;;;;;;;2.20;1.25;;;13.80;73.20;;;;;;5046219;28;20148;-72
2022/07/02 03:01:24;;;;;;;1.13;1.02;;;13.80;73.40;;;;;;4985052;28;20109;-71
2022/07/02 03:03:49;;;;;;;1.52;1.27;;;13.70;73.30;;;;;;5002684;28;20695;-71
2022/07/02 03:06:15;;;;;;;3.05;0.90;;;13.60;73.50;;;;;;5022713;28;20032;-71
2022/07/02 03:08:40;;;;;;;1.85;0.95;;;13.60;73.50;;;;;;5023500;28;20048;-70
2022/07/02 03:11:06;;;;;;;1.20;1.10;;;13.60;73.60;;;;;;5033287;28;20080;-70
2022/07/02 03:13:31;;;;;;;2.15;1.38;;;13.60;73.80;;;;;;5007965;28;20102;-71
2022/07/02 03:15:57;;;;;;;2.95;0.98;;;13.50;73.80;;;;;;5021295;28;20254;-71
2022/07/02 03:18:22;;;;;;;2.10;1.30;;;13.50;73.80;;;;;;5033508;28;20107;-70
2022/07/02 03:20:48;;;;;;;1.15;1.00;;;13.50;73.80;;;;;;5028366;28;20125;-71
2022/07/02 03:23:13;;;;;;;2.30;1.17;;;13.50;73.80;;;;;;5032625;28;20029;-71
2022/07/02 03:25:39;;;;;;;4.28;1.02;;;13.50;73.80;;;;;;5018839;28;20043;-71
2022/07/02 03:28:04;;;;;;;1.42;1.20;;;13.40;73.90;;;;;;5024527;28;20116;-70
2022/07/02 03:30:30;;;;;;;1.08;1.08;;;13.40;73.90;;;;;;5048382;28;20056;-72
2022/07/02 03:32:56;;;;;;;1.63;1.00;;;13.40;74.00;;;;;;5001897;28;20053;-71
2022/07/02 03:35:21;;;;;;;2.40;1.30;;;13.40;74.00;;;;;;5024966;28;20117;-71
2022/07/02 03:37:47;;;;;;;1.98;1.20;;;13.40;74.10;;;;;;5013906;28;20052;-70
2022/07/02 03:40:12;;;;;;;3.90;1.20;;;13.40;74.10;;;;;;5034787;28;20048;-70
2022/07/02 03:42:38;;;;;;;1.80;1.25;;;13.40;74.00;;;;;;5027562;28;20627;-71
2022/07/02 03:45:04;;;;;;;1.20;1.10;;;13.40;74.10;;;;;;5029741;28;20455;-72
2022/07/02 03:47:29;;;;;;;1.67;1.10;;;13.30;74.20;;;;;;5036521;28;20033;-72
2022/07/02 03:49:55;;;;;;;1.02;1.00;;;13.30;74.20;;;;;;5033125;28;20037;-71
2022/07/02 03:52:20;;;;;;;1.90;1.40;;;13.30;74.30;;;;;;5032313;28;20043;-70
2022/07/02 03:54:46;;;;;;;2.65;1.10;;;13.30;74.50;;;;;;5012610;28;20040;-70
2022/07/02 03:57:11;;;;;;;1.25;1.15;;;13.30;74.50;;;;;;5042603;28;20571;-70
2022/07/02 03:59:37;;;;;;;1.48;1.02;;;13.30;74.60;;;;;;5033501;28;20592;-70
2022/07/02 04:02:02;;;;;;;2.03;1.27;;;13.20;74.50;;;;;;5029942;28;20497;-70
2022/07/02 04:04:28;;;;;;;1.42;1.30;;;13.20;74.60;;;;;;5035504;28;20056;-71
2022/07/02 04:06:54;;;;;;;2.47;1.10;;;13.20;74.70;;;;;;5024987;28;20056;-71
2022/07/02 04:09:19;;;;;;;2.72;1.20;;;13.20;74.70;;;;;;5030488;28;20567;-71
2022/07/02 04:11:45;;;;;;;1.30;1.20;;;13.20;74.80;;;;;;5028713;28;20037;-71
2022/07/02 04:14:10;;;;;;;2.00;1.40;;;13.20;74.90;;;;;;5012570;28;20057;-71
2022/07/02 04:16:36;;;;;;;2.50;1.23;;;13.20;75.00;;;;;;5016645;28;20080;-70
2022/07/02 04:19:01;;;;;;;1.60;1.13;;;13.20;75.90;;;;;;5004658;28;20116;-72
2022/07/02 04:21:27;;;;;;;3.47;1.15;;;13.20;75.20;;;;;;5003799;28;20689;-71
2022/07/02 04:23:52;;;;;;;2.42;1.23;;;13.20;75.20;;;;;;4999646;28;20080;-71
2022/07/02 04:26:18;;;;;;;3.90;1.05;;;13.20;75.20;;;;;;5023375;28;20568;-70
2022/07/02 04:28:43;;;;;;;2.78;1.30;;;13.20;75.30;;;;;;5011053;28;20649;-72
2022/07/02 04:31:09;;;;;;;5.20;1.02;;;13.20;75.40;;;;;;5026086;28;20484;-71
2022/07/02 04:33:34;;;;;;;2.60;1.30;;;13.20;75.50;;;;;;5030002;28;20577;-70
2022/07/02 04:36:00;;;;;;;1.52;1.13;;;13.20;75.50;;;;;;5030555;28;20158;-70
2022/07/02 04:38:25;;;;;;;1.27;1.17;;;13.20;75.60;;;;;;5025417;28;20040;-70
2022/07/02 04:40:51;;;;;;;5.10;1.40;;;13.20;75.60;;;;;;5003600;28;20037;-70
2022/07/02 04:43:16;;;;;;;2.15;1.20;;;13.30;75.70;;;;;;5010499;28;20052;-70
2022/07/02 04:45:42;;;;;;;2.00;1.38;;;13.30;75.80;;;;;;5015927;28;20036;-72
2022/07/02 04:48:07;;;;;;;1.48;1.30;;;13.30;75.90;;;;;;5027667;28;20418;-70
2022/07/02 04:50:33;;;;;;;1.65;1.30;;;13.30;76.10;;;;;;5023752;28;20057;-70
2022/07/02 04:52:58;;;;;;;2.20;1.60;;;13.30;76.20;;;;;;5042304;28;20052;-72
2022/07/02 04:55:24;;;;;;;2.35;1.35;;;13.40;76.40;;;;;;5031573;28;20392;-71
2022/07/02 04:57:50;;;;;;;1.65;1.40;;;13.40;76.40;;;;;;5031712;28;20639;-71
2022/07/02 05:00:15;;;;;;;1.40;1.30;;;13.40;76.50;;;;;;5035816;28;20044;-71
2022/07/02 05:02:41;;;;;;;2.65;1.75;;;13.50;76.40;;;;;;5029367;28;20203;-71
2022/07/02 05:05:07;;;;;;;3.70;1.98;;;13.50;76.50;;;;;;5043619;28;20479;-71
2022/07/02 05:07:32;;;;;;;1.55;1.45;;;13.60;76.80;;;;;;5048265;28;20517;-72
2022/07/02 05:09:58;;;;;;;6.68;2.80;;;13.60;76.90;;;;;;5015568;28;20097;-71
2022/07/02 05:12:24;;;;;;;5.18;2.05;;;13.70;77.10;;;;;;5032749;28;20041;-71
2022/07/02 05:14:49;;;;;;;1.95;1.40;;;13.70;77.10;;;;;;5020619;28;20583;-71
2022/07/02 05:17:15;;;;;;;3.17;1.65;;;13.80;77.10;;;;;;5033789;28;20042;-72
2022/07/02 05:19:41;;;;;;;2.05;1.48;;;13.80;77.00;;;;;;5036856;28;20028;-70
2022/07/02 05:22:06;;;;;;;3.25;2.10;;;13.90;77.00;;;;;;5012736;28;20095;-71
2022/07/02 05:24:32;;;;;;;3.15;1.98;;;13.90;76.90;;;;;;5034854;28;20064;-70
2022/07/02 05:26:57;;;;;;;3.30;2.25;;;13.90;77.00;;;;;;5037337;28;20719;-71
2022/07/02 05:29:23;;;;;;;2.33;2.13;;;14.00;77.10;;;;;;5028638;28;20525;-70
2022/07/02 05:31:48;;;;;;;4.28;2.42;;;14.00;77.20;;;;;;5030246;28;20435;-70
2022/07/02 05:34:14;;;;;;;3.20;2.05;;;14.10;77.30;;;;;;5051009;28;20460;-70
2022/07/02 05:36:39;;;;;;;4.10;2.42;;;14.10;77.30;;;;;;5044791;28;20032;-70
2022/07/02 05:39:05;;;;;;;3.00;1.73;;;14.20;77.20;;;;;;5023322;28;20163;-70
2022/07/02 05:41:30;;;;;;;3.42;2.10;;;14.20;77.10;;;;;;5033884;28;20116;-70
2022/07/02 05:43:56;;;;;;;3.13;2.38;;;14.30;77.10;;;;;;5028947;28;20691;-70
2022/07/02 05:46:21;;;;;;;2.60;2.38;;;14.40;77.20;;;;;;5027955;28;20465;-71
2022/07/02 05:48:47;;;;;;;3.15;2.08;;;14.50;77.10;;;;;;5032263;28;20575;-71
2022/07/02 05:51:12;;;;;;;5.78;2.28;;;14.50;77.10;;;;;;5030944;28;20033;-71
2022/07/02 05:53:38;;;;;;;3.03;1.83;;;14.60;77.00;;;;;;5036121;28;20051;-72
2022/07/02 05:56:04;;;;;;;3.88;2.33;;;14.60;76.90;;;;;;5031376;28;20479;-73
2022/07/02 05:58:29;;;;;;;9.55;2.55;;;14.70;76.80;;;;;;5030874;28;20052;-71
2022/07/02 06:00:55;;;;;;;6.18;2.47;;;14.80;76.80;;;;;;5033340;28;20044;-70
2022/07/02 06:03:21;;;;;;;5.45;2.55;;;14.80;77.00;;;;;;5007423;28;20037;-72
2022/07/02 06:08:30;;;;;;;5.53;2.40;;;15.00;76.90;;;;;;5034544;28;20040;-73
2022/07/02 06:10:56;;;;;;;1.73;1.60;;;15.10;76.90;;;;;;5024142;28;20033;-74
2022/07/02 06:13:21;;;;;;;4.47;2.38;;;15.20;76.80;;;;;;5035503;28;20106;-71
2022/07/02 06:15:47;;;;;;;3.03;2.30;;;15.30;76.60;;;;;;5018420;28;20045;-72
2022/07/02 06:18:12;;;;;;;4.88;1.95;;;15.40;76.60;;;;;;5007466;28;20044;-72
2022/07/02 06:20:38;;;;;;;4.22;2.13;;;15.50;76.40;;;;;;5010150;28;20146;-72
2022/07/02 06:23:03;;;;;;;4.80;1.80;;;15.60;76.20;;;;;;5021108;28;20037;-72
2022/07/02 06:25:29;;;;;;;3.60;1.92;;;15.60;76.00;;;;;;5014228;28;20036;-72
2022/07/02 06:27:54;;;;;;;5.70;2.88;;;15.70;75.70;;;;;;5028038;28;20109;-73
2022/07/02 06:30:20;;;;;;;3.08;2.20;;;15.80;75.70;;;;;;5032789;28;20116;-73
2022/07/02 06:32:46;;;;;;;3.17;2.20;;;15.90;75.60;;;;;;5030460;28;20037;-72
2022/07/02 06:35:11;;;;;;;2.17;1.90;;;16.00;75.50;;;;;;5025754;28;20132;-72
2022/07/02 06:37:37;;;;;;;3.17;2.10;;;16.10;75.40;;;;;;5031261;28;20357;-73
2022/07/02 06:40:03;;;;;;;2.05;1.77;;;16.20;75.20;;;;;;5035471;28;20516;-74
2022/07/02 06:42:29;;;;;;;2.38;1.95;;;16.40;75.30;;;;;;5002005;28;20625;-73
2022/07/02 06:44:56;;;;;;;3.05;1.70;;;16.50;75.20;;;;;;5029846;28;20113;-73
2022/07/02 06:47:22;;;;;;;2.10;1.90;;;16.60;75.00;;;;;;5029030;28;20033;-73
2022/07/02 06:49:48;;;;;;;2.80;1.60;;;16.70;74.80;;;;;;5021571;28;20033;-73
2022/07/02 06:52:14;;;;;;;4.50;1.77;;;16.80;74.60;;;;;;5027387;28;20595;-73
2022/07/02 06:54:39;;;;;;;2.40;1.35;;;17.00;74.50;;;;;;5020219;28;20160;-74
2022/07/02 06:57:05;;;;;;;4.47;1.65;;;17.10;74.30;;;;;;5046079;28;20892;-73
2022/07/02 06:59:31;;;;;;;1.35;1.13;;;17.30;74.00;;;;;;5015233;28;20036;-72
2022/07/02 07:01:56;;;;;;;1.45;1.33;;;17.40;73.70;;;;;;5025767;28;20177;-73
2022/07/02 07:04:22;;;;;;;2.83;1.33;;;17.60;73.40;;;;;;5034747;28;20092;-72
2022/07/02 07:09:13;;;;;;;1.30;1.20;;;17.90;72.60;;;;;;5049660;28;20045;-73
2022/07/02 07:11:39;;;;;;;2.17;1.33;;;18.00;72.20;;;;;;5018869;28;20523;-72
2022/07/02 07:14:05;;;;;;;1.98;1.33;;;18.20;71.90;;;;;;5030068;28;20059;-71
2022/07/02 07:16:30;;;;;;;4.18;1.40;;;18.40;71.70;;;;;;5018537;28;20037;-72
2022/07/02 07:19:03;;;;;;;1.80;1.30;;;18.50;71.40;;;;;;5041351;28;20037;-70
2022/07/02 07:21:28;;;;;;;4.22;1.13;;;18.70;71.00;;;;;;5034723;28;20033;-72
2022/07/02 07:23:54;;;;;;;2.95;1.40;;;19.00;70.70;;;;;;5021728;28;20037;-71
2022/07/02 07:26:19;;;;;;;3.30;1.05;;;19.10;70.20;;;;;;5033835;28;20498;-71
2022/07/02 07:28:45;;;;;;;2.63;0.90;;;19.20;69.80;;;;;;5033744;28;20406;-74
2022/07/02 07:31:10;;;;;;;1.50;0.88;;;19.40;69.40;;;;;;5030804;28;20731;-70
2022/07/02 07:33:37;;;;;;;2.45;0.95;;;19.50;69.00;;;;;;5008860;28;20025;-71
2022/07/02 07:36:03;;;;;;;2.75;1.35;;;19.70;68.80;;;;;;5018257;28;20144;-70
2022/07/02 07:38:28;;;;;;;2.17;0.95;;;19.90;68.40;;;;;;5041852;28;20386;-71
2022/07/02 07:40:54;;;;;;;6.60;2.17;;;20.10;68.00;;;;;;5034930;28;20095;-71
2022/07/02 07:43:20;;;;;;;26.33;4.07;;;20.30;67.60;;;;;;5017995;28;20128;-71
2022/07/02 07:45:46;;;;;;;21.27;3.28;;;20.50;67.20;;;;;;5032655;28;20086;-72
2022/07/02 07:48:15;;;;;;;31.95;3.35;;;20.70;66.90;;;;;;5027446;28;20035;-71
2022/07/02 07:50:41;;;;;;;10.15;2.45;;;20.90;66.40;;;;;;5007188;28;20039;-73
2022/07/02 07:53:06;;;;;;;20.10;4.65;;;21.00;66.00;;;;;;5022992;28;20033;-70
2022/07/02 07:55:32;;;;;;;4.60;1.20;;;21.20;65.60;;;;;;5025222;28;20174;-73
2022/07/02 07:57:57;;;;;;;154.23;18.52;;;21.40;65.10;;;;;;5028555;28;20120;-71
2022/07/02 08:00:23;;;;;;;38.13;5.22;;;21.50;64.70;;;;;;5045250;28;20028;-72
2022/07/02 08:02:49;;;;;;;45.63;7.45;;;21.70;64.40;;;;;;5030924;28;20055;-72
2022/07/02 08:05:15;;;;;;;154.50;18.65;;;21.90;64.00;;;;;;5025734;28;20594;-72
2022/07/02 08:07:41;;;;;;;9.13;1.98;;;22.10;63.40;;;;;;5034044;28;20040;-72
2022/07/02 08:10:07;;;;;;;36.35;4.88;;;22.30;63.00;;;;;;5010125;28;20040;-73
2022/07/02 08:12:33;;;;;;;48.35;6.65;;;22.60;62.70;;;;;;5023970;28;20036;-71
2022/07/02 08:15:01;;;;;;;56.85;7.60;;;22.70;61.90;;;;;;5028267;28;20766;-73
2022/07/02 08:17:29;;;;;;;31.38;5.45;;;22.90;61.50;;;;;;5018890;28;20025;-73
2022/07/02 08:19:55;;;;;;;7.18;1.67;;;23.10;60.90;;;;;;5019858;28;20063;-72
2022/07/02 08:22:20;;;;;;;12.30;2.42;;;23.30;60.30;;;;;;5022552;28;20194;-73
2022/07/02 08:24:46;;;;;;;3.47;1.13;;;23.50;59.90;;;;;;5025492;28;20092;-74
2022/07/02 08:27:11;;;;;;;5.00;0.85;;;23.60;59.50;;;;;;5007434;28;20143;-71
2022/07/02 08:29:37;;;;;;;4.75;1.30;;;23.90;59.10;;;;;;5014875;28;20371;-71
2022/07/02 08:32:06;;;;;;;5.30;1.20;;;24.00;58.60;;;;;;5033649;28;20037;-72
2022/07/02 08:34:31;;;;;;;5.93;0.90;;;24.30;58.00;;;;;;5013397;28;20029;-75
2022/07/02 08:36:57;;;;;;;1.52;0.85;;;24.40;57.60;;;;;;5010231;28;20041;-72
2022/07/02 08:39:23;;;;;;;2.72;0.90;;;24.60;56.90;;;;;;5031663;28;20414;-73
2022/07/02 08:41:49;;;;;;;105.97;12.00;;;24.80;56.30;;;;;;5030811;28;20033;-73
2022/07/02 08:44:15;;;;;;;22.98;2.30;;;25.00;55.70;;;;;;5010058;28;20043;-74
2022/07/02 08:46:41;;;;;;;7.18;1.33;;;25.10;55.10;;;;;;5038267;28;20041;-73
2022/07/02 08:49:07;;;;;;;3.53;1.30;;;25.20;54.50;;;;;;5017564;28;20033;-73
2022/07/02 08:51:32;;;;;;;2.33;0.73;;;25.30;54.10;;;;;;5014186;28;20574;-73
2022/07/02 08:53:59;;;;;;;3.08;1.10;;;25.40;53.80;;;;;;5011871;28;20507;-74
2022/07/02 08:56:25;;;;;;;2.03;0.68;;;25.60;53.40;;;;;;5018868;28;20046;-73
2022/07/02 08:58:50;;;;;;;5.03;0.60;;;25.70;52.90;;;;;;5001724;28;20044;-75
2022/07/02 09:01:16;;;;;;;13.30;1.55;;;25.80;52.30;;;;;;5018235;28;20063;-72
2022/07/02 09:03:41;;;;;;;45.65;5.70;;;25.90;52.00;;;;;;5010928;28;20036;-72
2022/07/02 09:06:07;;;;;;;283.33;39.63;;;26.10;51.70;;;;;;5024443;28;20705;-71
2022/07/02 09:08:33;;;;;;;22.48;3.75;;;26.20;51.50;;;;;;5035084;28;20701;-71
2022/07/02 09:10:59;;;;;;;4.63;1.00;;;26.40;50.90;;;;;;5026222;28;20036;-71
2022/07/02 09:13:24;;;;;;;7.85;1.83;;;26.40;50.40;;;;;;4991852;28;20045;-71
2022/07/02 09:15:51;;;;;;;25.33;3.10;;;26.50;50.10;;;;;;5028680;28;20468;-70
2022/07/02 09:18:18;;;;;;;11.35;2.20;;;26.70;50.10;;;;;;5038114;28;20045;-73
2022/07/02 09:20:44;;;;;;;8.00;1.13;;;26.80;49.70;;;;;;5018548;28;20039;-72
2022/07/02 09:23:10;;;;;;;6.63;1.02;;;27.00;49.40;;;;;;5034908;28;20068;-75
2022/07/02 09:25:36;;;;;;;5.85;1.00;;;27.20;48.90;;;;;;5022077;28;20056;-73
2022/07/02 09:28:03;;;;;;;20.10;3.45;;;27.50;48.80;;;;;;5020404;28;20123;-74
2022/07/02 09:30:30;;;;;;;9.90;1.70;;;27.70;48.40;;;;;;5017969;28;20571;-73
2022/07/02 09:35:40;;;;;;;3.75;1.40;;;28.10;47.20;;;;;;5031206;28;20460;-73
2022/07/02 09:38:09;;;;;;;4.03;1.00;;;28.30;46.70;;;;;;5015679;28;20033;-73
2022/07/02 09:40:35;;;;;;;2.20;0.43;;;28.50;46.20;;;;;;5044016;28;20544;-73
2022/07/02 09:43:00;;;;;;;4.88;1.02;;;28.60;45.80;;;;;;5031396;28;20052;-73
2022/07/02 09:45:26;;;;;;;4.25;0.63;;;28.70;45.60;;;;;;5016354;28;20029;-73
2022/07/02 09:47:53;;;;;;;52.67;7.20;;;28.90;45.20;;;;;;5029926;28;20302;-74
2022/07/02 09:50:19;;;;;;;13.18;1.83;;;28.90;45.00;;;;;;5058180;28;20277;-76
2022/07/02 09:52:53;;;;;;;10.45;1.67;;;29.10;44.70;;;;;;5039613;28;20490;-73
2022/07/02 09:55:25;;;;;;;4.32;0.82;;;29.30;43.90;;;;;;5018899;28;20040;-73
2022/07/02 09:57:51;;;;;;;11.07;0.73;;;29.60;43.60;;;;;;5027069;28;20040;-74
2022/07/02 10:00:17;;;;;;;2.25;0.80;;;29.80;43.30;;;;;;5036981;28;20036;-73
2022/07/02 10:02:43;;;;;;;5.22;1.02;;;29.90;43.10;;;;;;5028687;28;20049;-73
2022/07/02 10:05:08;;;;;;;1.42;0.30;;;30.00;43.00;;;;;;5042962;28;20045;-73
2022/07/02 10:07:34;;;;;;;1.33;0.40;;;30.20;42.30;;;;;;5016455;28;20043;-73
2022/07/02 10:10:02;;;;;;;5.57;0.40;;;30.20;42.10;;;;;;5028257;28;20028;-73
2022/07/02 10:12:28;;;;;;;1.95;0.40;;;30.20;41.80;;;;;;5047618;28;20060;-73
2022/07/02 10:14:53;;;;;;;1.85;0.50;;;30.20;41.70;;;;;;5030057;28;20037;-73
2022/07/02 10:17:28;;;;;;;1.35;0.50;;;30.20;42.10;;;;;;5012943;28;20034;-73
2022/07/02 10:19:54;;;;;;;1.20;0.50;;;30.40;41.20;;;;;;5026203;28;20043;-72
2022/07/02 10:22:20;;;;;;;2.35;0.50;;;30.50;41.30;;;;;;4995475;28;20064;-73
2022/07/02 10:24:46;;;;;;;2.08;0.40;;;30.70;41.10;;;;;;5042550;28;20044;-74
2022/07/02 10:27:12;;;;;;;4.05;0.50;;;31.00;40.80;;;;;;5033042;28;20029;-73
2022/07/02 10:29:38;;;;;;;0.63;0.30;;;31.30;40.40;;;;;;5035091;28;20032;-74
2022/07/02 10:32:36;;;;;;;0.47;0.30;;;31.50;40.00;;;;;;5015797;28;20463;-73
2022/07/02 10:35:09;;;;;;;0.82;0.30;;;31.60;38.60;;;;;;5020506;28;20503;-73
2022/07/02 10:37:39;;;;;;;7.80;0.95;;;31.80;39.70;;;;;;5038899;28;20036;-72
2022/07/02 10:40:05;;;;;;;1.23;0.30;;;31.90;38.90;;;;;;5018146;28;20032;-72
2022/07/02 10:42:48;;;;;;;0.52;0.40;;;31.90;38.80;;;;;;5027964;28;20049;-73
2022/07/02 10:45:17;;;;;;;4.10;0.68;;;31.90;37.50;;;;;;4996872;28;20443;-72
2022/07/02 10:47:56;;;;;;;4.85;0.82;;;32.00;38.30;;;;;;5028969;28;20036;-73
2022/07/02 10:50:39;;;;;;;2.38;0.50;;;31.90;37.20;;;;;;5040933;28;20037;-72
2022/07/02 10:53:15;;;;;;;2.50;0.55;;;32.00;37.80;;;;;;5015678;28;20612;-72
2022/07/02 10:55:42;;;;;;;0.77;0.50;;;32.00;37.70;;;;;;5028518;28;20037;-72
2022/07/02 10:58:08;;;;;;;0.35;0.35;;;31.90;38.30;;;;;;5023496;28;20204;-73
2022/07/02 11:00:38;;;;;;;0.52;0.40;;;31.80;37.40;;;;;;4983714;28;20063;-72
2022/07/02 11:03:33;;;;;;;1.17;0.37;;;31.70;37.00;;;;;;4990596;28;20552;-75
2022/07/02 11:06:02;;;;;;;0.47;0.30;;;31.80;37.40;;;;;;5026292;28;20160;-74
2022/07/02 11:08:46;;;;;;;0.60;0.40;;;32.10;36.70;;;;;;5032882;28;20032;-73
2022/07/02 11:11:19;;;;;;;0.50;0.30;;;32.30;35.90;;;;;;5026226;28;20033;-73
2022/07/02 11:13:45;;;;;;;0.32;0.30;;;32.30;36.40;;;;;;5028883;28;20182;-73
2022/07/02 11:16:27;;;;;;;2.17;0.30;;;32.30;35.90;;;;;;5042547;28;20047;-73
2022/07/02 11:18:54;;;;;;;2.00;0.43;;;32.50;35.40;;;;;;5012199;28;20130;-74
2022/07/02 11:21:21;;;;;;;0.50;0.35;;;32.70;35.90;;;;;;5007925;28;20048;-73
2022/07/02 11:23:47;;;;;;;0.38;0.20;;;32.80;35.70;;;;;;5015501;28;20410;-73
2022/07/02 11:26:20;;;;;;;1.83;0.40;;;33.00;35.50;;;;;;5025789;28;20042;-74
2022/07/02 11:28:46;;;;;;;0.22;0.22;;;33.10;34.10;;;;;;5020800;28;20039;-72
2022/07/02 11:31:11;;;;;;;0.63;0.30;;;33.20;34.80;;;;;;5016361;28;20033;-73
2022/07/02 11:33:44;;;;;;;1.38;0.57;;;33.30;34.80;;;;;;5002828;28;20064;-74
2022/07/02 11:36:10;;;;;;;0.68;0.28;;;33.40;34.20;;;;;;5046287;28;20049;-73
2022/07/02 11:38:37;;;;;;;0.32;0.32;;;33.50;34.20;;;;;;5018645;28;20107;-73
2022/07/02 11:41:03;;;;;;;3.08;0.40;;;33.60;34.10;;;;;;4991599;28;21516;-73
2022/07/02 11:43:29;;;;;;;2.45;0.50;;;33.80;34.20;;;;;;5026940;28;20748;-73
2022/07/02 11:45:54;;;;;;;0.60;0.28;;;34.00;33.90;;;;;;5014252;28;20037;-73
2022/07/02 11:48:21;;;;;;;0.38;0.30;;;34.00;33.70;;;;;;5005893;28;20515;-73
2022/07/02 11:50:56;;;;;;;1.05;0.30;;;34.00;33.70;;;;;;5001625;28;20063;-74
2022/07/02 11:53:23;;;;;;;2.10;0.40;;;34.10;32.30;;;;;;5016676;28;20040;-73
2022/07/02 11:55:48;;;;;;;2.03;0.30;;;34.30;33.10;;;;;;5026333;28;20033;-72
2022/07/02 11:58:14;;;;;;;0.30;0.22;;;34.40;32.90;;;;;;5011215;28;20039;-72
2022/07/02 12:00:39;;;;;;;0.60;0.40;;;34.50;32.60;;;;;;5027991;28;20590;-72
2022/07/02 12:03:11;;;;;;;3.70;0.40;;;34.50;32.50;;;;;;5031538;28;20032;-73
2022/07/02 12:05:37;;;;;;;0.50;0.50;;;34.60;32.00;;;;;;5028148;28;20171;-73
2022/07/02 12:08:04;;;;;;;0.25;0.20;;;34.70;32.10;;;;;;5026937;28;20771;-73
2022/07/02 12:10:38;;;;;;;1.38;0.40;;;34.50;31.90;;;;;;5019614;28;20402;-72
2022/07/02 12:13:10;;;;;;;0.43;0.20;;;34.50;31.20;;;;;;5022840;28;20035;-72
2022/07/02 12:15:43;;;;;;;0.63;0.20;;;34.50;31.50;;;;;;5028863;28;20056;-72
2022/07/02 12:18:19;;;;;;;4.47;0.32;;;34.60;31.70;;;;;;5011618;28;20032;-72
2022/07/02 12:20:45;;;;;;;0.32;0.28;;;34.80;31.20;;;;;;5032385;28;20040;-72
2022/07/02 12:23:11;;;;;;;1.02;0.45;;;34.80;31.80;;;;;;5013040;28;20064;-73
2022/07/02 12:25:46;;;;;;;0.95;0.40;;;34.90;31.60;;;;;;5030065;28;20036;-73
2022/07/02 12:30:56;;;;;;;1.80;0.30;;;35.00;31.50;;;;;;5029258;28;20753;-73
2022/07/02 12:33:34;;;;;;;0.65;0.30;;;35.10;31.30;;;;;;5005895;28;20025;-73
2022/07/02 12:36:00;;;;;;;1.55;0.40;;;35.10;30.80;;;;;;5046371;28;20075;-72
2022/07/02 12:38:26;;;;;;;0.30;0.13;;;35.30;31.30;;;;;;5037806;28;20044;-74
2022/07/02 12:41:01;;;;;;;0.60;0.40;;;35.30;30.70;;;;;;5019774;28;20091;-73
2022/07/02 12:43:26;;;;;;;0.50;0.38;;;35.20;29.30;;;;;;5039981;28;20044;-73
2022/07/02 12:45:52;;;;;;;2.90;0.30;;;35.10;30.10;;;;;;5027681;28;20046;-72
2022/07/02 12:48:19;;;;;;;0.60;0.30;;;35.20;30.20;;;;;;5028270;28;20032;-73
2022/07/02 12:50:46;;;;;;;0.35;0.30;;;35.20;30.30;;;;;;4991731;28;20038;-72
2022/07/02 12:53:16;;;;;;;0.63;0.38;;;35.10;30.30;;;;;;5011042;28;20563;-72
2022/07/02 12:55:51;;;;;;;5.07;0.60;;;35.10;30.00;;;;;;5035786;28;20091;-72
2022/07/02 12:58:17;;;;;;;1.55;0.40;;;35.10;30.50;;;;;;5002317;28;20899;-72